Time;durP1;ratioP1;P1;durP2;ratioP2;P2;SDS_P1;SDS_P2;PMS_P1;PMS_P2;Temp;Humidity;BMP_temperature;BMP_pressure;BME280_temperature;BME280_humidity;BME280_pressure;Samples;Min_cycle;Max_cycle;Signal;HPM_P1;HPM_P2
2023/04/16 00:01:17;;;;;;;21.60;17.70;;;;;;;7.55;84.31;99760.23;107197;1257;61420;-38
2023/04/16 00:03:45;;;;;;;24.90;18.30;;;;;;;7.56;84.24;99764.44;107179;1258;61555;-38
2023/04/16 00:06:14;;;;;;;26.70;17.20;;;;;;;7.53;84.09;99763.65;107259;1257;73235;-38
2023/04/16 00:08:45;;;;;;;24.20;17.00;;;;;;;7.52;84.02;99767.01;107155;1257;69106;-38
2023/04/16 00:11:14;;;;;;;;;;;;;;;7.54;83.97;99766.23;107214;1258;75123;-38
2023/04/16 00:13:44;;;;;;;22.60;18.70;;;;;;;7.48;84.28;99767.40;107182;1257;61615;-38
2023/04/16 00:16:12;;;;;;;23.30;17.10;;;;;;;7.42;84.72;99770.73;107197;1257;61273;-38
2023/04/16 00:18:41;;;;;;;24.10;17.40;;;;;;;7.48;84.64;99769.62;107175;1257;74849;-38
2023/04/16 00:21:09;;;;;;;24.60;18.30;;;;;;;7.58;84.26;99767.67;107351;1256;69294;-38
2023/04/16 00:23:38;;;;;;;27.30;20.50;;;;;;;7.57;83.98;99770.35;107260;1256;73932;-38
2023/04/16 00:26:07;;;;;;;27.80;19.50;;;;;;;7.50;84.10;99773.77;107235;1257;61256;-38
2023/04/16 00:28:36;;;;;;;26.70;18.90;;;;;;;7.47;84.29;99771.96;107120;1255;61242;-38
2023/04/16 00:31:04;;;;;;;23.80;19.70;;;;;;;7.52;84.33;99770.14;107123;1257;74047;-38
2023/04/16 00:33:33;;;;;;;28.90;21.40;;;;;;;7.52;84.34;99772.16;107412;1257;69655;-38
2023/04/16 00:36:04;;;;;;;25.90;20.50;;;;;;;7.42;84.36;99770.61;107274;1257;73592;-38
2023/04/16 00:38:32;;;;;;;29.70;20.00;;;;;;;7.44;84.39;99779.67;107472;1255;63119;-38
2023/04/16 00:41:01;;;;;;;26.30;21.50;;;;;;;7.47;84.61;99781.77;107257;1257;61986;-38
2023/04/16 00:43:30;;;;;;;31.40;20.80;;;;;;;7.47;84.68;99781.27;107344;1256;75048;-38
2023/04/16 00:45:59;;;;;;;24.50;19.00;;;;;;;7.39;84.81;99785.04;107444;1257;69110;-38
2023/04/16 00:48:30;;;;;;;27.70;21.00;;;;;;;7.39;84.93;99782.94;107251;1257;73349;-38
2023/04/16 00:51:00;;;;;;;28.00;21.40;;;;;;;7.41;85.04;99783.30;107450;1257;61600;-38
2023/04/16 00:53:29;;;;;;;;;;;;;;;7.41;85.23;99785.85;107241;1257;62496;-38
2023/04/16 00:55:57;;;;;;;28.90;20.30;;;;;;;7.36;85.37;99783.75;107441;1257;75144;-38
2023/04/16 00:58:26;;;;;;;26.00;21.30;;;;;;;7.38;85.48;99786.06;107465;1258;69140;-38
2023/04/16 01:00:55;;;;;;;38.20;23.60;;;;;;;7.41;85.40;99781.09;107208;1257;73725;-38
2023/04/16 01:03:26;;;;;;;31.10;22.40;;;;;;;7.40;85.27;99783.92;107252;1257;61283;-38
2023/04/16 01:05:54;;;;;;;25.60;21.10;;;;;;;7.39;85.40;99782.40;107359;1256;61270;-38
2023/04/16 01:08:24;;;;;;;32.30;23.20;;;;;;;7.43;85.19;99785.02;107446;1255;73775;-38
2023/04/16 01:10:52;;;;;;;30.00;25.80;;;;;;;7.44;85.35;99788.50;107273;1256;69214;-38
2023/04/16 01:13:21;;;;;;;30.60;23.10;;;;;;;7.44;85.57;99788.28;107421;1259;73623;-38
2023/04/16 01:15:50;;;;;;;29.10;21.60;;;;;;;7.48;85.38;99786.10;107405;1257;63043;-38
2023/04/16 01:18:20;;;;;;;27.90;22.90;;;;;;;7.52;85.25;99785.20;107473;1256;61582;-38
2023/04/16 01:20:50;;;;;;;33.30;24.20;;;;;;;7.52;85.26;99781.64;107509;1256;73778;-38
2023/04/16 01:23:18;;;;;;;28.40;22.60;;;;;;;7.48;85.29;99782.24;107466;1257;66971;-38
2023/04/16 01:25:47;;;;;;;29.70;23.00;;;;;;;7.46;85.41;99782.48;107432;1257;73971;-38
2023/04/16 01:28:16;;;;;;;32.80;23.70;;;;;;;7.46;85.43;99786.04;107327;1256;61291;-38
2023/04/16 01:30:44;;;;;;;31.80;24.00;;;;;;;7.44;85.60;99786.50;107442;1260;61578;-39
2023/04/16 01:33:39;;;;;;;31.80;22.80;;;;;;;7.42;85.73;99786.13;107115;1256;75067;-39
2023/04/16 01:36:08;;;;;;;33.20;23.40;;;;;;;7.44;85.66;99782.95;107302;1257;68843;-39
2023/04/16 01:38:37;;;;;;;32.40;24.80;;;;;;;7.43;85.79;99784.25;107308;1257;73886;-39
2023/04/16 01:41:06;;;;;;;31.20;22.80;;;;;;;7.40;86.01;99784.98;107267;1257;63192;-39
2023/04/16 01:43:35;;;;;;;27.30;21.80;;;;;;;7.44;86.20;99792.05;107390;1257;61406;-39
2023/04/16 01:46:17;;;;;;;37.00;25.80;;;;;;;7.52;86.02;99786.82;107423;1259;75045;-39
2023/04/16 01:48:46;;;;;;;37.10;26.00;;;;;;;7.55;86.00;99786.45;107416;1257;69128;-38
2023/04/16 01:51:15;;;;;;;39.50;24.30;;;;;;;7.53;86.07;99787.14;107234;1258;72906;-38
2023/04/16 01:53:44;;;;;;;21.40;18.20;;;;;;;7.53;85.86;99784.85;107451;1256;62868;-39
2023/04/16 01:56:13;;;;;;;35.20;25.90;;;;;;;7.54;85.75;99785.48;107466;1257;61496;-39
2023/04/16 01:58:41;;;;;;;32.30;26.20;;;;;;;7.51;85.81;99785.14;107160;1259;75052;-39
2023/04/16 02:01:11;;;;;;;33.70;23.30;;;;;;;7.48;85.89;99786.66;107247;1256;68816;-39
2023/04/16 02:03:40;;;;;;;30.30;24.40;;;;;;;7.51;85.92;99784.67;107272;1256;73522;-38
2023/04/16 02:06:09;;;;;;;34.50;25.10;;;;;;;7.50;85.96;99784.73;107209;1256;60451;-39
2023/04/16 02:08:38;;;;;;;31.50;25.10;;;;;;;7.50;86.20;99782.89;107270;1256;61571;-38
2023/04/16 02:11:07;;;;;;;31.50;23.40;;;;;;;7.51;86.07;99786.70;107225;1257;74828;-38
2023/04/16 02:13:36;;;;;;;33.00;24.90;;;;;;;7.55;85.89;99785.30;107264;1256;68868;-38
2023/04/16 02:16:05;;;;;;;34.20;26.00;;;;;;;7.53;85.87;99785.68;107300;1257;73543;-38
2023/04/16 02:18:43;;;;;;;38.10;25.90;;;;;;;7.48;86.14;99788.02;107200;1259;62860;-38
2023/04/16 02:21:13;;;;;;;33.30;24.50;;;;;;;7.51;86.27;99790.92;107233;1257;60627;-38
2023/04/16 02:23:44;;;;;;;36.00;25.50;;;;;;;7.57;86.21;99791.14;107167;1256;74932;-38
2023/04/16 02:26:13;;;;;;;37.20;25.80;;;;;;;7.54;86.21;99794.46;107155;1256;69131;-38
2023/04/16 02:28:41;;;;;;;32.40;23.10;;;;;;;7.50;86.38;99795.44;107212;1256;72399;-37
2023/04/16 02:31:10;;;;;;;35.90;25.00;;;;;;;7.51;86.41;99795.49;107253;1256;62945;-38
2023/04/16 02:33:43;;;;;;;36.30;25.60;;;;;;;7.53;86.41;99794.63;107230;1256;60739;-38
2023/04/16 02:36:12;;;;;;;35.70;25.10;;;;;;;7.50;86.57;99799.22;107161;1256;74631;-38
2023/04/16 02:38:40;;;;;;;34.10;24.10;;;;;;;7.49;86.66;99803.20;107248;1256;69052;-37
2023/04/16 02:41:09;;;;;;;35.60;25.70;;;;;;;7.54;86.61;99804.67;107272;1256;73627;-38
2023/04/16 02:43:37;;;;;;;35.80;25.70;;;;;;;7.57;86.71;99807.03;107284;1256;60547;-39
2023/04/16 02:46:06;;;;;;;33.00;23.50;;;;;;;7.57;86.71;99809.13;107234;1256;61774;-39
2023/04/16 02:48:35;;;;;;;37.30;23.30;;;;;;;7.60;86.59;99808.77;107157;1256;74947;-39
2023/04/16 02:51:03;;;;;;;32.20;23.00;;;;;;;7.65;86.47;99810.34;107202;1256;69158;-39
2023/04/16 02:53:32;;;;;;;33.20;24.90;;;;;;;7.67;86.35;99816.84;107144;1256;73239;-39
2023/04/16 02:56:00;;;;;;;32.40;24.80;;;;;;;7.65;86.45;99819.98;107224;1256;61617;-39
2023/04/16 02:58:29;;;;;;;32.40;23.50;;;;;;;7.67;86.39;99823.83;107117;1256;60322;-39
2023/04/16 03:00:58;;;;;;;34.20;23.30;;;;;;;7.72;86.20;99829.66;107115;1256;75003;-38
2023/04/16 03:03:26;;;;;;;30.70;24.10;;;;;;;7.73;86.17;99830.09;107195;1256;68897;-39
2023/04/16 03:05:55;;;;;;;34.20;24.20;;;;;;;7.73;86.29;99831.17;107110;1256;73908;-39
2023/04/16 03:08:25;;;;;;;35.20;21.90;;;;;;;7.74;86.03;99831.67;107118;1257;63197;-39
2023/04/16 03:10:53;;;;;;;33.90;22.40;;;;;;;7.77;85.98;99834.96;107183;1257;61532;-38
2023/04/16 03:13:22;;;;;;;38.10;25.20;;;;;;;7.79;86.17;99837.25;107245;1257;75039;-39
2023/04/16 03:15:50;;;;;;;34.40;22.70;;;;;;;7.78;86.12;99836.60;107236;1256;68133;-39
2023/04/16 03:18:19;;;;;;;32.80;22.70;;;;;;;7.79;85.91;99837.77;107302;1256;73839;-38
2023/04/16 03:20:52;;;;;;;36.30;23.50;;;;;;;7.78;85.83;99839.07;107121;1257;60231;-39
2023/04/16 03:23:22;;;;;;;31.70;22.80;;;;;;;7.76;85.98;99844.84;107108;1256;61175;-39
2023/04/16 03:25:50;;;;;;;31.40;21.70;;;;;;;7.73;86.09;99848.20;107235;1256;75106;-38
2023/04/16 03:28:20;;;;;;;32.10;23.40;;;;;;;7.76;85.97;99852.50;107130;1260;69104;-39
2023/04/16 03:30:52;;;;;;;32.80;23.50;;;;;;;7.78;86.07;99854.70;107170;1256;73828;-39
2023/04/16 03:33:22;;;;;;;33.80;21.90;;;;;;;7.78;86.30;99853.27;107238;1256;61455;-39
2023/04/16 03:35:57;;;;;;;28.50;20.70;;;;;;;7.79;86.15;99859.33;107205;1256;60391;-39
2023/04/16 03:38:28;;;;;;;29.50;21.40;;;;;;;7.85;85.92;99855.89;107246;1256;74634;-39
2023/04/16 03:40:57;;;;;;;34.00;23.10;;;;;;;7.84;85.97;99860.66;107165;1257;68951;-39
2023/04/16 03:43:26;;;;;;;31.50;22.00;;;;;;;7.84;86.15;99860.88;107223;1256;73540;-38
2023/04/16 03:45:54;;;;;;;34.00;20.30;;;;;;;7.86;86.00;99861.02;107183;1256;63253;-37
2023/04/16 03:48:23;;;;;;;28.50;21.10;;;;;;;7.89;85.92;99860.43;107286;1256;61195;-37
2023/04/16 03:50:52;;;;;;;32.70;21.40;;;;;;;7.90;85.97;99857.69;107346;1256;74809;-37
2023/04/16 03:53:22;;;;;;;27.30;19.90;;;;;;;7.85;85.92;99859.30;107151;1256;68227;-37
2023/04/16 03:55:51;;;;;;;27.00;19.80;;;;;;;7.84;85.87;99853.73;107300;1258;73839;-37
2023/04/16 03:58:20;;;;;;;29.70;21.10;;;;;;;7.88;85.90;99857.41;107155;1256;61926;-37
2023/04/16 04:00:50;;;;;;;26.70;20.60;;;;;;;7.85;86.08;99856.45;107138;1257;60317;-37
2023/04/16 04:03:19;;;;;;;25.00;18.90;;;;;;;7.83;86.18;99859.15;107255;1256;74725;-37
2023/04/16 04:05:49;;;;;;;30.30;20.30;;;;;;;7.86;86.18;99856.87;107273;1256;68013;-37
2023/04/16 04:08:30;;;;;;;26.10;20.80;;;;;;;7.87;86.13;99858.29;107261;1256;73651;-37
2023/04/16 04:10:58;;;;;;;23.50;19.00;;;;;;;7.88;86.39;99858.48;107134;1256;61270;-37
2023/04/16 04:13:27;;;;;;;27.00;18.80;;;;;;;7.89;86.27;99853.73;107240;1256;60707;-38
2023/04/16 04:15:56;;;;;;;26.10;19.30;;;;;;;7.93;86.20;99856.52;107259;1256;73698;-38
2023/04/16 04:18:26;;;;;;;29.90;20.70;;;;;;;7.94;86.07;99854.91;107230;1257;69103;-38
2023/04/16 04:20:56;;;;;;;26.50;19.10;;;;;;;7.91;86.22;99853.88;107150;1256;73998;-38
2023/04/16 04:23:27;;;;;;;27.70;17.60;;;;;;;7.91;86.26;99859.81;107233;1260;63079;-38
2023/04/16 04:25:55;;;;;;;25.70;18.80;;;;;;;7.94;86.34;99860.77;107220;1256;60666;-38
2023/04/16 04:28:25;;;;;;;25.00;17.90;;;;;;;7.94;86.41;99859.75;107162;1256;73762;-38
2023/04/16 04:30:54;;;;;;;26.80;17.70;;;;;;;7.93;86.50;99866.23;107018;1256;194725;-38
2023/04/16 04:35:23;;;;;;;26.90;19.20;;;;;;;8.01;86.41;99869.38;104107;1291;599640;-38
2023/04/16 04:37:52;;;;;;;26.30;16.10;;;;;;;7.98;86.33;99869.34;106560;1267;61284;-38
2023/04/16 04:40:21;;;;;;;23.10;16.70;;;;;;;7.98;86.34;99874.35;106638;1265;61219;-38
2023/04/16 04:42:52;;;;;;;27.20;18.20;;;;;;;8.00;86.19;99876.89;106673;1267;73181;-38
2023/04/16 04:45:24;;;;;;;;;;;;;;;8.01;86.19;99877.17;106701;1269;68832;-38
2023/04/16 04:47:54;;;;;;;24.60;17.10;;;;;;;7.95;86.48;99881.35;106582;1269;225338;-39
2023/04/16 04:50:23;;;;;;;23.10;15.90;;;;;;;7.93;86.45;99881.94;106819;1264;63062;-38
2023/04/16 04:52:51;;;;;;;24.10;15.90;;;;;;;7.99;86.25;99882.05;106848;1263;61566;-38
2023/04/16 04:55:20;;;;;;;21.50;16.30;;;;;;;8.04;86.41;99880.55;106777;1269;73378;-37
2023/04/16 04:57:48;;;;;;;19.50;15.20;;;;;;;8.06;86.19;99881.75;106872;1264;68757;-37
2023/04/16 05:00:17;;;;;;;22.30;15.30;;;;;;;8.07;85.89;99882.94;106795;1268;73745;-38
2023/04/16 05:02:52;;;;;;;19.50;14.90;;;;;;;8.10;85.57;99884.33;106801;1264;61483;-38
2023/04/16 05:05:21;;;;;;;22.50;16.20;;;;;;;8.09;85.68;99891.20;106779;1264;61329;-38
2023/04/16 05:07:50;;;;;;;20.40;14.50;;;;;;;8.06;85.86;99890.92;106756;1264;74245;-38
2023/04/16 05:10:18;;;;;;;18.90;14.10;;;;;;;8.10;85.88;99895.31;106780;1264;69142;-38
2023/04/16 05:12:47;;;;;;;20.70;15.10;;;;;;;8.16;85.76;99897.96;106800;1267;72526;-38
2023/04/16 05:15:16;;;;;;;22.20;15.00;;;;;;;8.17;85.65;99899.93;106853;1264;61732;-38
2023/04/16 05:17:45;;;;;;;20.60;13.10;;;;;;;8.12;85.62;99898.88;106849;1264;61552;-38
2023/04/16 05:20:13;;;;;;;18.70;13.40;;;;;;;8.12;85.58;99901.11;106884;1263;74250;-38
2023/04/16 05:22:42;;;;;;;17.80;12.80;;;;;;;8.15;85.41;99903.85;106917;1264;69084;-39
2023/04/16 05:25:11;;;;;;;21.80;14.40;;;;;;;8.14;85.70;99907.00;106872;1264;73689;-38
2023/04/16 05:27:40;;;;;;;15.30;12.30;;;;;;;8.13;85.85;99902.23;106866;1264;62986;-38
2023/04/16 05:30:09;;;;;;;18.20;12.70;;;;;;;8.16;85.51;99904.80;106869;1269;61546;-38
2023/04/16 05:32:38;;;;;;;18.00;13.00;;;;;;;8.17;85.45;99907.09;106883;1264;74211;-38
2023/04/16 05:35:08;;;;;;;18.70;12.80;;;;;;;8.18;85.64;99907.98;107084;1264;69238;-38
2023/04/16 05:37:36;;;;;;;15.70;11.80;;;;;;;8.17;85.55;99909.56;107037;1260;72825;-37
2023/04/16 05:40:06;;;;;;;15.90;12.40;;;;;;;8.20;85.48;99909.83;107010;1265;61564;-37
2023/04/16 05:42:36;;;;;;;16.80;12.20;;;;;;;8.25;85.66;99912.19;107064;1264;59857;-37
2023/04/16 05:45:05;;;;;;;16.90;11.50;;;;;;;8.29;85.66;99914.94;107038;1260;73473;-39
2023/04/16 05:47:34;;;;;;;24.00;11.70;;;;;;;8.33;85.40;99916.14;106880;1264;67774;-39
2023/04/16 05:50:03;;;;;;;14.90;11.70;;;;;;;8.38;84.98;99921.30;106865;1265;73843;-39
2023/04/16 05:52:32;;;;;;;21.00;12.90;;;;;;;8.36;84.79;99923.48;106966;1261;60689;-38
2023/04/16 05:55:00;;;;;;;16.30;10.40;;;;;;;8.33;85.00;99926.91;106895;1262;61510;-38
2023/04/16 05:57:29;;;;;;;17.30;10.80;;;;;;;8.36;84.84;99930.48;107002;1262;74335;-38
2023/04/16 05:59:57;;;;;;;15.10;10.70;;;;;;;8.39;84.84;99932.61;106918;1266;69106;-38
2023/04/16 06:02:26;;;;;;;14.40;10.00;;;;;;;8.41;84.84;99937.71;107042;1265;74075;-38
2023/04/16 06:04:55;;;;;;;13.20;10.00;;;;;;;8.38;84.82;99938.69;106912;1265;63197;-38
2023/04/16 06:07:24;;;;;;;15.40;10.10;;;;;;;8.39;84.73;99938.27;107022;1261;61424;-38
2023/04/16 06:09:52;;;;;;;13.90;10.20;;;;;;;8.43;84.71;99942.02;106999;1261;74277;-37
2023/04/16 06:12:21;;;;;;;15.30;10.10;;;;;;;8.44;84.80;99943.08;107020;1266;69118;-37
2023/04/16 06:14:50;;;;;;;15.00;9.90;;;;;;;8.45;84.59;99947.21;107060;1260;73872;-37
2023/04/16 06:17:18;;;;;;;11.30;9.30;;;;;;;8.51;84.56;99949.51;107021;1266;61579;-37
2023/04/16 06:19:47;;;;;;;13.30;9.70;;;;;;;8.57;84.70;99948.25;107037;1266;61125;-37
2023/04/16 06:22:16;;;;;;;16.60;9.80;;;;;;;8.61;84.49;99945.98;107022;1263;74308;-37
2023/04/16 06:24:45;;;;;;;12.60;8.90;;;;;;;8.63;84.28;99945.31;107016;1265;69141;-37
2023/04/16 06:27:13;;;;;;;13.10;9.10;;;;;;;8.69;84.07;99949.48;107089;1266;73985;-37
2023/04/16 06:29:42;;;;;;;15.30;9.20;;;;;;;8.75;84.13;99952.13;107052;1261;61604;-37
2023/04/16 06:32:10;;;;;;;12.90;9.80;;;;;;;8.76;83.93;99956.06;107044;1262;61550;-38
2023/04/16 06:34:40;;;;;;;12.60;8.80;;;;;;;8.81;84.09;99961.08;107013;1266;74324;-38
2023/04/16 06:37:08;;;;;;;12.90;8.40;;;;;;;8.88;83.72;99962.56;107064;1264;69154;-38
2023/04/16 06:39:37;;;;;;;12.30;9.30;;;;;;;8.92;83.54;99964.02;107057;1261;72757;-39
2023/04/16 06:42:06;;;;;;;11.90;8.90;;;;;;;8.96;83.82;99963.57;107058;1264;61571;-39
2023/04/16 06:44:35;;;;;;;12.40;8.80;;;;;;;9.02;83.67;99965.29;107045;1261;61507;-39
2023/04/16 06:47:04;;;;;;;10.70;9.10;;;;;;;9.09;83.12;99968.41;107027;1260;74084;-39
2023/04/16 06:49:32;;;;;;;12.10;8.80;;;;;;;9.17;82.72;99969.52;107053;1264;67440;-39
2023/04/16 06:52:02;;;;;;;11.80;9.00;;;;;;;9.21;82.45;99971.52;107040;1266;73920;-39
2023/04/16 06:54:33;;;;;;;11.90;8.30;;;;;;;9.23;82.54;99974.20;106993;1266;63206;-39
2023/04/16 06:57:01;;;;;;;11.60;8.80;;;;;;;9.29;82.48;99974.64;107041;1261;61614;-37
2023/04/16 06:59:30;;;;;;;14.70;9.40;;;;;;;9.35;82.00;99969.18;107037;1261;73285;-38
2023/04/16 07:02:00;;;;;;;;;;;;;;;9.42;81.96;99978.64;107071;1261;69400;-37
2023/04/16 07:04:29;;;;;;;12.30;9.60;;;;;;;9.40;81.72;99978.02;107074;1264;73864;-37
2023/04/16 07:06:57;;;;;;;13.30;9.10;;;;;;;9.33;81.51;99979.57;107060;1261;62990;-37
2023/04/16 07:09:26;;;;;;;15.00;9.70;;;;;;;9.39;81.46;99980.95;107085;1262;61946;-37
2023/04/16 07:11:54;;;;;;;13.00;9.20;;;;;;;9.46;81.39;99984.73;107065;1260;74374;-37
2023/04/16 07:14:23;;;;;;;14.60;9.80;;;;;;;9.48;81.25;99981.30;106950;1261;69190;-37
2023/04/16 07:16:52;;;;;;;14.40;9.30;;;;;;;9.46;81.33;99982.65;106908;1261;73860;-39
2023/04/16 07:19:20;;;;;;;12.80;10.40;;;;;;;9.48;81.07;99985.40;106862;1264;60045;-37
2023/04/16 07:21:49;;;;;;;14.70;10.10;;;;;;;9.45;80.90;99986.54;106909;1260;62181;-37
2023/04/16 07:24:17;;;;;;;18.40;10.20;;;;;;;9.43;81.17;99987.80;107016;1261;74402;-37
2023/04/16 07:26:46;;;;;;;15.10;10.80;;;;;;;9.42;81.00;99987.61;107007;1264;69604;-37
2023/04/16 07:29:14;;;;;;;18.50;10.80;;;;;;;9.43;80.99;99985.88;106955;1260;73844;-37
2023/04/16 07:31:44;;;;;;;15.90;11.10;;;;;;;9.44;80.87;99983.64;106902;1260;59766;-37
2023/04/16 07:34:12;;;;;;;15.70;11.10;;;;;;;9.40;80.85;99987.77;107043;1261;60042;-38
2023/04/16 07:36:41;;;;;;;15.50;10.50;;;;;;;9.40;81.10;99989.10;106986;1260;73900;-39
2023/04/16 07:39:09;;;;;;;15.30;10.50;;;;;;;9.51;81.53;99985.66;107030;1261;67312;-38
2023/04/16 07:41:39;;;;;;;15.30;11.00;;;;;;;9.64;81.40;99982.30;107069;1261;73539;-39
2023/04/16 07:44:08;;;;;;;16.60;11.40;;;;;;;9.78;81.55;99980.19;107069;1260;60922;-38
2023/04/16 07:46:37;;;;;;;17.60;10.50;;;;;;;9.88;81.07;99979.05;107060;1261;61559;-38
2023/04/16 07:49:14;;;;;;;18.60;10.20;;;;;;;10.02;80.48;99974.52;107064;1260;72556;-39
2023/04/16 07:51:43;;;;;;;20.20;11.60;;;;;;;10.15;79.95;99970.76;107019;1264;69185;-38
2023/04/16 07:54:11;;;;;;;15.30;11.50;;;;;;;10.23;79.26;99970.02;107063;1264;73944;-38
2023/04/16 07:56:40;;;;;;;17.90;11.20;;;;;;;10.28;79.15;99966.20;107009;1260;61618;-38
2023/04/16 07:59:08;;;;;;;18.00;12.30;;;;;;;10.31;78.83;99973.95;107047;1264;61536;-38
2023/04/16 08:01:51;;;;;;;14.70;12.00;;;;;;;10.32;77.79;99975.62;107014;1266;74259;-38
2023/04/16 08:04:23;;;;;;;15.50;12.20;;;;;;;10.26;77.64;99976.06;107037;1260;68937;-38
2023/04/16 08:06:53;;;;;;;15.00;11.40;;;;;;;10.21;77.21;99981.23;107041;1261;73898;-38
2023/04/16 08:09:22;;;;;;;15.10;10.10;;;;;;;10.17;77.47;99983.52;107042;1261;63216;-38
2023/04/16 08:11:51;;;;;;;18.50;10.50;;;;;;;10.24;77.30;99983.02;107093;1261;61211;-38
2023/04/16 08:14:20;;;;;;;16.60;12.10;;;;;;;10.29;77.21;99987.13;107057;1260;74238;-38
2023/04/16 08:16:48;;;;;;;16.30;11.90;;;;;;;10.27;77.26;99983.13;107003;1264;67128;-37
2023/04/16 08:19:17;;;;;;;15.70;11.30;;;;;;;10.20;77.17;99983.92;107012;1261;73927;-38
2023/04/16 08:21:46;;;;;;;14.40;11.50;;;;;;;10.17;76.97;99980.82;107049;1261;63081;-38
2023/04/16 08:24:14;;;;;;;17.60;12.20;;;;;;;10.15;77.40;99981.07;107017;1261;61552;-38
2023/04/16 08:26:43;;;;;;;19.40;11.60;;;;;;;10.15;77.58;99982.74;107022;1261;74275;-38
2023/04/16 08:29:11;;;;;;;15.80;10.60;;;;;;;10.10;77.54;99983.45;107053;1260;67699;-37
2023/04/16 08:31:40;;;;;;;14.30;11.30;;;;;;;10.05;77.59;99985.30;107056;1260;73841;-37
2023/04/16 08:34:10;;;;;;;18.50;11.90;;;;;;;9.99;77.48;99983.63;107017;1261;61457;-38
2023/04/16 08:36:39;;;;;;;20.90;12.40;;;;;;;9.89;77.79;99983.80;107107;1261;60011;-38
2023/04/16 08:39:08;;;;;;;17.30;11.00;;;;;;;9.81;78.22;99988.17;107028;1260;74038;-38
2023/04/16 08:41:38;;;;;;;15.90;11.30;;;;;;;9.82;78.74;99984.11;106954;1260;67782;-38
2023/04/16 08:44:07;;;;;;;14.30;11.30;;;;;;;9.84;78.44;99983.95;106930;1261;73592;-38
2023/04/16 08:46:36;;;;;;;14.50;10.40;;;;;;;9.79;78.45;99984.69;106985;1260;61240;-38
2023/04/16 08:49:05;;;;;;;23.10;12.50;;;;;;;9.72;78.82;99991.14;107059;1261;61232;-38
2023/04/16 08:51:34;;;;;;;19.50;12.10;;;;;;;9.73;78.81;99991.02;107062;1260;75068;-38
2023/04/16 08:54:11;;;;;;;16.80;12.70;;;;;;;9.76;78.61;99992.83;107055;1261;69159;-38
2023/04/16 08:56:39;;;;;;;21.60;13.80;;;;;;;9.73;78.48;99994.58;106926;1261;72414;-38
2023/04/16 08:59:11;;;;;;;21.00;12.90;;;;;;;9.65;78.62;99993.77;106921;1261;63163;-38
2023/04/16 09:01:40;;;;;;;18.30;12.00;;;;;;;9.66;78.84;99993.80;107054;1261;61520;-38
2023/04/16 09:04:09;;;;;;;17.80;13.30;;;;;;;9.74;78.88;99991.58;106948;1260;74998;-39
2023/04/16 09:06:40;;;;;;;20.10;13.30;;;;;;;9.73;78.56;99991.65;106968;1261;69115;-38
2023/04/16 09:09:08;;;;;;;17.50;12.10;;;;;;;9.69;78.76;99992.36;106832;1260;73831;-38
2023/04/16 09:11:38;;;;;;;18.60;12.50;;;;;;;9.74;78.81;99992.77;106878;1266;61294;-38
2023/04/16 09:14:08;;;;;;;20.00;12.90;;;;;;;9.80;78.53;99992.00;107077;1260;61485;-38
2023/04/16 09:16:37;;;;;;;;;;;;;;;9.83;78.38;99987.86;107042;1260;76099;-38
2023/04/16 09:19:06;;;;;;;18.50;13.40;;;;;;;9.83;78.33;99988.70;107025;1260;67425;-38
2023/04/16 09:21:35;;;;;;;19.10;13.90;;;;;;;9.88;78.49;99992.59;106996;1261;73886;-38
2023/04/16 09:24:04;;;;;;;21.30;14.30;;;;;;;9.96;78.62;99992.05;107026;1260;61527;-38
2023/04/16 09:26:33;;;;;;;21.80;14.30;;;;;;;10.00;78.76;99996.90;107002;1260;61575;-38
2023/04/16 09:29:02;;;;;;;21.70;14.50;;;;;;;10.01;78.34;100000.42;107050;1260;75067;-38
2023/04/16 09:31:30;;;;;;;20.80;13.80;;;;;;;10.03;77.62;99996.16;107024;1261;68816;-39
2023/04/16 09:34:07;;;;;;;22.20;13.60;;;;;;;10.00;77.45;99999.40;107022;1264;72443;-39
2023/04/16 09:36:37;;;;;;;21.20;14.30;;;;;;;9.96;77.79;100004.92;107322;1256;62839;-39
2023/04/16 09:39:06;;;;;;;24.80;14.50;;;;;;;9.94;77.74;100005.99;107393;1256;60407;-38
2023/04/16 09:41:38;;;;;;;22.00;15.50;;;;;;;9.94;77.82;100011.04;107278;1257;73798;-39
2023/04/16 09:44:07;;;;;;;23.60;15.60;;;;;;;9.90;77.94;100014.34;107303;1257;68177;-38
2023/04/16 09:46:40;;;;;;;30.60;15.00;;;;;;;9.85;78.07;100018.33;107295;1259;73683;-38
2023/04/16 09:49:09;;;;;;;23.30;16.40;;;;;;;9.82;78.37;100022.80;107329;1257;63117;-39
2023/04/16 09:51:48;;;;;;;26.00;17.10;;;;;;;9.79;78.38;100024.10;107372;1256;61576;-38
2023/04/16 09:54:16;;;;;;;26.70;16.80;;;;;;;9.72;78.47;100026.04;107358;1256;73546;-39
2023/04/16 09:56:45;;;;;;;26.50;16.20;;;;;;;9.63;78.98;100029.14;107235;1257;69131;-38
2023/04/16 09:59:18;;;;;;;23.60;15.90;;;;;;;9.64;79.14;100031.04;107317;1256;72638;-38
2023/04/16 10:01:48;;;;;;;24.70;17.20;;;;;;;9.66;79.21;100035.19;107329;1257;60654;-39
2023/04/16 10:04:17;;;;;;;31.50;16.80;;;;;;;9.63;79.27;100038.17;107313;1257;61507;-38
2023/04/16 10:07:02;;;;;;;25.90;15.60;;;;;;;9.64;79.46;100036.99;107251;1256;75024;-38
2023/04/16 10:09:36;;;;;;;26.30;16.90;;;;;;;9.68;79.10;100041.29;107263;1257;68320;-38
2023/04/16 10:12:05;;;;;;;27.80;17.60;;;;;;;9.65;79.28;100043.42;107159;1257;73851;-39
2023/04/16 10:14:34;;;;;;;30.70;16.20;;;;;;;9.64;79.45;100044.64;107307;1257;63156;-38
2023/04/16 10:17:04;;;;;;;21.10;12.70;;;;;;;9.68;79.57;100049.47;107339;1257;61430;-38
2023/04/16 10:19:34;;;;;;;26.50;16.90;;;;;;;9.69;79.26;100048.37;107307;1257;75026;-38
2023/04/16 10:22:03;;;;;;;31.20;18.60;;;;;;;9.67;79.29;100049.33;107328;1257;69025;-38
2023/04/16 10:24:33;;;;;;;32.40;17.30;;;;;;;9.62;79.42;100049.13;107340;1257;73540;-38
2023/04/16 10:27:01;;;;;;;34.60;21.00;;;;;;;9.62;79.42;100051.31;107302;1257;61481;-38
2023/04/16 10:29:30;;;;;;;28.60;18.20;;;;;;;9.64;79.71;100046.33;107243;1257;61538;-39
2023/04/16 10:31:59;;;;;;;37.00;23.00;;;;;;;9.63;79.71;100046.39;107307;1257;74938;-38
2023/04/16 10:34:28;;;;;;;28.70;18.50;;;;;;;9.64;79.67;100051.27;107291;1257;68718;-38
2023/04/16 10:36:56;;;;;;;26.30;16.20;;;;;;;9.69;79.80;100052.86;107265;1257;72721;-38
2023/04/16 10:39:26;;;;;;;29.70;18.10;;;;;;;9.74;79.66;100049.45;107295;1257;61581;-38
2023/04/16 10:42:07;;;;;;;;;;;;;;;9.77;79.65;100051.58;107313;1257;60271;-38
2023/04/16 10:44:36;;;;;;;27.50;16.00;;;;;;;9.75;79.60;100051.42;107227;1257;74825;-38
2023/04/16 10:47:12;;;;;;;28.20;17.10;;;;;;;9.76;79.56;100049.91;107362;1256;69295;-38
2023/04/16 10:49:41;;;;;;;26.30;17.70;;;;;;;9.80;79.59;100049.89;107242;1256;73762;-38
2023/04/16 10:52:15;;;;;;;30.30;17.40;;;;;;;9.85;79.46;100053.22;107338;1256;61601;-38
2023/04/16 10:54:45;;;;;;;28.60;17.50;;;;;;;9.88;79.16;100056.67;107351;1260;60341;-39
2023/04/16 10:57:17;;;;;;;33.10;19.70;;;;;;;9.92;78.89;100057.62;107318;1257;72643;-37
2023/04/16 10:59:45;;;;;;;32.20;20.50;;;;;;;9.92;79.02;100058.34;107331;1257;68868;-37
2023/04/16 11:02:15;;;;;;;32.30;20.70;;;;;;;9.90;79.25;100058.12;107343;1256;74096;-37
2023/04/16 11:04:44;;;;;;;;;;;;;;;9.90;78.95;100059.13;107384;1257;63911;-38
2023/04/16 11:07:17;;;;;;;37.80;23.40;;;;;;;9.91;78.97;100059.87;107384;1257;60952;-38
2023/04/16 11:09:59;;;;;;;39.40;24.80;;;;;;;9.92;78.91;100060.35;107369;1257;75064;-38
2023/04/16 11:12:28;;;;;;;36.40;24.20;;;;;;;9.96;78.53;100053.66;107322;1260;69369;-38
2023/04/16 11:15:00;;;;;;;37.70;23.30;;;;;;;9.98;78.58;100056.99;107344;1257;73836;-39
2023/04/16 11:17:35;;;;;;;42.70;27.00;;;;;;;10.03;78.35;100057.85;107343;1256;61475;-38
2023/04/16 11:20:17;;;;;;;43.80;28.20;;;;;;;10.03;78.23;100060.70;107387;1257;60638;-38
2023/04/16 11:22:52;;;;;;;46.40;27.70;;;;;;;9.99;78.30;100065.84;107328;1257;74039;-38
2023/04/16 11:25:32;;;;;;;40.20;26.20;;;;;;;9.97;78.22;100066.48;107355;1257;68047;-38
2023/04/16 11:28:01;;;;;;;42.80;28.30;;;;;;;10.06;77.97;100064.52;107386;1257;73655;-38
2023/04/16 11:30:34;;;;;;;42.30;27.80;;;;;;;10.11;77.49;100068.07;107343;1257;61590;-38